sensor_id;sensor_type;location;lat;lon;timestamp;temperature;humidity
40151;DHT22;25866;52.420;10.640;2023-01-29T00:01:33;-0.50;99.90
40151;DHT22;25866;52.420;10.640;2023-01-29T00:03:59;-0.50;99.90
40151;DHT22;25866;52.420;10.640;2023-01-29T00:06:24;-0.40;99.90
40151;DHT22;25866;52.420;10.640;2023-01-29T00:08:50;-0.40;99.90
40151;DHT22;25866;52.420;10.640;2023-01-29T00:11:16;-0.50;99.90
40151;DHT22;25866;52.420;10.640;2023-01-29T00:13:42;-0.50;99.90
40151;DHT22;25866;52.420;10.640;2023-01-29T00:16:08;-0.50;99.90
40151;DHT22;25866;52.420;10.640;2023-01-29T00:18:37;-0.50;99.90
40151;DHT22;25866;52.420;10.640;2023-01-29T00:21:07;-0.40;99.90
40151;DHT22;25866;52.420;10.640;2023-01-29T00:23:32;-0.50;99.90
40151;DHT22;25866;52.420;10.640;2023-01-29T00:25:59;-0.50;99.90
40151;DHT22;25866;52.420;10.640;2023-01-29T00:28:24;-0.50;99.90
40151;DHT22;25866;52.420;10.640;2023-01-29T00:30:50;-0.40;99.90
40151;DHT22;25866;52.420;10.640;2023-01-29T00:33:16;-0.50;99.90
40151;DHT22;25866;52.420;10.640;2023-01-29T00:35:41;-0.40;99.90
40151;DHT22;25866;52.420;10.640;2023-01-29T00:38:07;-0.40;99.90
40151;DHT22;25866;52.420;10.640;2023-01-29T00:40:38;-0.40;99.90
40151;DHT22;25866;52.420;10.640;2023-01-29T00:43:23;-0.30;99.90
40151;DHT22;25866;52.420;10.640;2023-01-29T00:46:08;-0.40;99.90
40151;DHT22;25866;52.420;10.640;2023-01-29T00:48:34;-0.40;99.90
40151;DHT22;25866;52.420;10.640;2023-01-29T00:51:01;-0.30;99.90
40151;DHT22;25866;52.420;10.640;2023-01-29T00:53:27;-0.30;99.90
40151;DHT22;25866;52.420;10.640;2023-01-29T00:55:53;-0.30;99.90
40151;DHT22;25866;52.420;10.640;2023-01-29T00:58:19;-0.30;99.90
40151;DHT22;25866;52.420;10.640;2023-01-29T01:00:50;-0.20;99.90
40151;DHT22;25866;52.420;10.640;2023-01-29T01:03:16;-0.20;99.90
40151;DHT22;25866;52.420;10.640;2023-01-29T01:05:42;-0.20;99.90
40151;DHT22;25866;52.420;10.640;2023-01-29T01:08:09;-0.20;99.90
40151;DHT22;25866;52.420;10.640;2023-01-29T01:11:05;-0.20;99.90
40151;DHT22;25866;52.420;10.640;2023-01-29T01:13:33;-0.20;99.90
40151;DHT22;25866;52.420;10.640;2023-01-29T01:15:59;-0.20;99.90
40151;DHT22;25866;52.420;10.640;2023-01-29T01:18:28;-0.20;99.90
40151;DHT22;25866;52.420;10.640;2023-01-29T01:20:56;-0.20;99.90
40151;DHT22;25866;52.420;10.640;2023-01-29T01:23:22;-0.20;99.90
40151;DHT22;25866;52.420;10.640;2023-01-29T01:25:48;-0.20;99.90
40151;DHT22;25866;52.420;10.640;2023-01-29T01:28:14;-0.20;99.90
40151;DHT22;25866;52.420;10.640;2023-01-29T01:30:39;-0.20;99.90
40151;DHT22;25866;52.420;10.640;2023-01-29T01:33:05;-0.20;99.90
40151;DHT22;25866;52.420;10.640;2023-01-29T01:35:31;-0.20;99.90
40151;DHT22;25866;52.420;10.640;2023-01-29T01:37:56;-0.20;99.90
40151;DHT22;25866;52.420;10.640;2023-01-29T01:40:23;-0.20;99.90
40151;DHT22;25866;52.420;10.640;2023-01-29T01:42:55;-0.20;99.90
40151;DHT22;25866;52.420;10.640;2023-01-29T01:45:28;-0.20;99.90
40151;DHT22;25866;52.420;10.640;2023-01-29T01:50:40;-0.20;99.90
40151;DHT22;25866;52.420;10.640;2023-01-29T01:53:10;-0.30;99.90
40151;DHT22;25866;52.420;10.640;2023-01-29T01:55:41;-0.30;99.90
40151;DHT22;25866;52.420;10.640;2023-01-29T01:58:11;-0.30;99.90
40151;DHT22;25866;52.420;10.640;2023-01-29T02:00:40;-0.30;99.90
40151;DHT22;25866;52.420;10.640;2023-01-29T02:03:07;-0.30;99.90
40151;DHT22;25866;52.420;10.640;2023-01-29T02:05:54;-0.30;99.90
40151;DHT22;25866;52.420;10.640;2023-01-29T02:08:59;-0.20;99.90
40151;DHT22;25866;52.420;10.640;2023-01-29T02:11:44;-0.30;99.90
40151;DHT22;25866;52.420;10.640;2023-01-29T02:14:11;-0.30;99.90
40151;DHT22;25866;52.420;10.640;2023-01-29T02:16:37;-0.30;99.90
40151;DHT22;25866;52.420;10.640;2023-01-29T02:19:07;-0.30;99.90
40151;DHT22;25866;52.420;10.640;2023-01-29T02:27:12;-0.30;99.90
40151;DHT22;25866;52.420;10.640;2023-01-29T02:30:02;-0.30;99.90
40151;DHT22;25866;52.420;10.640;2023-01-29T02:35:29;-0.20;99.90
40151;DHT22;25866;52.420;10.640;2023-01-29T02:38:35;-0.20;99.90
40151;DHT22;25866;52.420;10.640;2023-01-29T02:41:13;-0.20;99.90
40151;DHT22;25866;52.420;10.640;2023-01-29T02:43:53;-0.20;99.90
40151;DHT22;25866;52.420;10.640;2023-01-29T02:47:16;-0.20;99.90
40151;DHT22;25866;52.420;10.640;2023-01-29T02:49:40;-0.20;99.90
40151;DHT22;25866;52.420;10.640;2023-01-29T02:54:54;-0.10;99.90
40151;DHT22;25866;52.420;10.640;2023-01-29T02:57:24;-0.10;99.90
40151;DHT22;25866;52.420;10.640;2023-01-29T03:00:20;-0.10;99.90
40151;DHT22;25866;52.420;10.640;2023-01-29T03:03:20;-0.10;99.90
40151;DHT22;25866;52.420;10.640;2023-01-29T03:06:23;0.00;99.90
40151;DHT22;25866;52.420;10.640;2023-01-29T03:08:57;0.00;99.90
40151;DHT22;25866;52.420;10.640;2023-01-29T03:11:26;0.00;99.90
40151;DHT22;25866;52.420;10.640;2023-01-29T03:14:02;0.00;99.90
40151;DHT22;25866;52.420;10.640;2023-01-29T03:16:40;0.00;99.90
40151;DHT22;25866;52.420;10.640;2023-01-29T03:19:21;-0.10;99.90
40151;DHT22;25866;52.420;10.640;2023-01-29T03:21:57;0.00;99.90
40151;DHT22;25866;52.420;10.640;2023-01-29T03:24:59;-0.10;99.90
40151;DHT22;25866;52.420;10.640;2023-01-29T03:27:56;-0.10;99.90
40151;DHT22;25866;52.420;10.640;2023-01-29T03:30:53;-0.10;99.90
40151;DHT22;25866;52.420;10.640;2023-01-29T03:34:05;-0.10;99.90
40151;DHT22;25866;52.420;10.640;2023-01-29T03:36:33;-0.10;99.90
40151;DHT22;25866;52.420;10.640;2023-01-29T03:39:07;-0.10;99.90
40151;DHT22;25866;52.420;10.640;2023-01-29T03:41:44;-0.10;99.90
40151;DHT22;25866;52.420;10.640;2023-01-29T03:44:22;-0.10;99.90
40151;DHT22;25866;52.420;10.640;2023-01-29T03:46:54;-0.10;99.90
40151;DHT22;25866;52.420;10.640;2023-01-29T03:49:56;-0.10;99.90
40151;DHT22;25866;52.420;10.640;2023-01-29T03:52:59;-0.20;99.90
40151;DHT22;25866;52.420;10.640;2023-01-29T03:58:45;-0.20;99.90
40151;DHT22;25866;52.420;10.640;2023-01-29T04:01:50;-0.20;99.90
40151;DHT22;25866;52.420;10.640;2023-01-29T04:04:23;-0.20;99.90
40151;DHT22;25866;52.420;10.640;2023-01-29T04:06:53;-0.20;99.90
40151;DHT22;25866;52.420;10.640;2023-01-29T04:10:03;-0.20;99.90
40151;DHT22;25866;52.420;10.640;2023-01-29T04:12:27;-0.20;99.90
40151;DHT22;25866;52.420;10.640;2023-01-29T04:14:55;-0.20;99.90
40151;DHT22;25866;52.420;10.640;2023-01-29T04:17:26;-0.20;99.90
40151;DHT22;25866;52.420;10.640;2023-01-29T04:19:58;-0.20;99.90
40151;DHT22;25866;52.420;10.640;2023-01-29T04:22:46;-0.20;99.90
40151;DHT22;25866;52.420;10.640;2023-01-29T04:25:21;-0.20;99.90
40151;DHT22;25866;52.420;10.640;2023-01-29T04:30:58;-0.20;99.90
40151;DHT22;25866;52.420;10.640;2023-01-29T04:36:45;-0.20;99.90
40151;DHT22;25866;52.420;10.640;2023-01-29T04:39:23;-0.20;99.90
40151;DHT22;25866;52.420;10.640;2023-01-29T04:42:14;-0.10;99.90
40151;DHT22;25866;52.420;10.640;2023-01-29T04:45:02;-0.20;99.90
40151;DHT22;25866;52.420;10.640;2023-01-29T04:50:23;-0.20;99.90
40151;DHT22;25866;52.420;10.640;2023-01-29T04:55:48;-0.20;99.90
40151;DHT22;25866;52.420;10.640;2023-01-29T04:59:01;-0.30;99.90
40151;DHT22;25866;52.420;10.640;2023-01-29T05:01:30;-0.20;99.90
40151;DHT22;25866;52.420;10.640;2023-01-29T05:04:01;-0.30;99.90
40151;DHT22;25866;52.420;10.640;2023-01-29T05:06:28;-0.30;99.90
40151;DHT22;25866;52.420;10.640;2023-01-29T05:08:56;-0.30;99.90
40151;DHT22;25866;52.420;10.640;2023-01-29T05:11:23;-0.40;99.90
40151;DHT22;25866;52.420;10.640;2023-01-29T05:13:49;-0.30;99.90
40151;DHT22;25866;52.420;10.640;2023-01-29T05:16:22;-0.40;99.90
40151;DHT22;25866;52.420;10.640;2023-01-29T05:18:51;-0.40;99.90
40151;DHT22;25866;52.420;10.640;2023-01-29T05:21:21;-0.50;99.90
40151;DHT22;25866;52.420;10.640;2023-01-29T05:24:07;-0.40;99.90
40151;DHT22;25866;52.420;10.640;2023-01-29T05:26:33;-0.40;99.90
40151;DHT22;25866;52.420;10.640;2023-01-29T05:29:18;-0.50;99.90
40151;DHT22;25866;52.420;10.640;2023-01-29T05:31:51;-0.50;99.90
40151;DHT22;25866;52.420;10.640;2023-01-29T05:34:17;-0.50;99.90
40151;DHT22;25866;52.420;10.640;2023-01-29T05:36:42;-0.40;99.90
40151;DHT22;25866;52.420;10.640;2023-01-29T05:39:08;-0.40;99.90
40151;DHT22;25866;52.420;10.640;2023-01-29T05:41:36;-0.40;99.90
40151;DHT22;25866;52.420;10.640;2023-01-29T05:44:02;-0.40;99.90
40151;DHT22;25866;52.420;10.640;2023-01-29T05:46:27;-0.30;99.90
40151;DHT22;25866;52.420;10.640;2023-01-29T05:48:53;-0.30;99.90
40151;DHT22;25866;52.420;10.640;2023-01-29T05:51:20;-0.40;99.90
40151;DHT22;25866;52.420;10.640;2023-01-29T05:53:46;-0.40;99.90
40151;DHT22;25866;52.420;10.640;2023-01-29T05:56:11;-0.40;99.90
40151;DHT22;25866;52.420;10.640;2023-01-29T05:58:37;-0.30;99.90
40151;DHT22;25866;52.420;10.640;2023-01-29T06:01:19;-0.30;99.90
40151;DHT22;25866;52.420;10.640;2023-01-29T06:03:46;-0.30;99.90
40151;DHT22;25866;52.420;10.640;2023-01-29T06:06:12;-0.20;99.90
40151;DHT22;25866;52.420;10.640;2023-01-29T06:08:38;-0.30;99.90
40151;DHT22;25866;52.420;10.640;2023-01-29T06:11:07;-0.20;99.90
40151;DHT22;25866;52.420;10.640;2023-01-29T06:13:33;-0.20;99.90
40151;DHT22;25866;52.420;10.640;2023-01-29T06:15:59;-0.20;99.90
40151;DHT22;25866;52.420;10.640;2023-01-29T06:18:25;-0.20;99.90
40151;DHT22;25866;52.420;10.640;2023-01-29T06:20:50;-0.10;99.90
40151;DHT22;25866;52.420;10.640;2023-01-29T06:23:16;-0.20;99.90
40151;DHT22;25866;52.420;10.640;2023-01-29T06:25:42;-0.10;99.90
40151;DHT22;25866;52.420;10.640;2023-01-29T06:28:07;-0.10;99.90
40151;DHT22;25866;52.420;10.640;2023-01-29T06:30:33;-0.10;99.90
40151;DHT22;25866;52.420;10.640;2023-01-29T06:32:59;-0.10;99.90
40151;DHT22;25866;52.420;10.640;2023-01-29T06:35:26;-0.10;99.90
40151;DHT22;25866;52.420;10.640;2023-01-29T06:37:52;-0.10;99.90
40151;DHT22;25866;52.420;10.640;2023-01-29T06:40:19;-0.10;99.90
40151;DHT22;25866;52.420;10.640;2023-01-29T06:42:45;-0.10;99.90
40151;DHT22;25866;52.420;10.640;2023-01-29T06:45:11;0.00;99.90
40151;DHT22;25866;52.420;10.640;2023-01-29T06:47:37;0.00;99.90
40151;DHT22;25866;52.420;10.640;2023-01-29T06:50:03;0.00;99.90
40151;DHT22;25866;52.420;10.640;2023-01-29T06:52:28;0.00;99.90
40151;DHT22;25866;52.420;10.640;2023-01-29T06:54:55;0.00;99.90
40151;DHT22;25866;52.420;10.640;2023-01-29T06:57:21;0.00;99.90
40151;DHT22;25866;52.420;10.640;2023-01-29T06:59:47;0.00;99.90
40151;DHT22;25866;52.420;10.640;2023-01-29T07:02:13;0.00;99.90
40151;DHT22;25866;52.420;10.640;2023-01-29T07:04:39;0.10;99.90
40151;DHT22;25866;52.420;10.640;2023-01-29T07:07:06;0.10;99.90
40151;DHT22;25866;52.420;10.640;2023-01-29T07:09:40;0.20;99.90
40151;DHT22;25866;52.420;10.640;2023-01-29T07:12:07;0.10;99.90
40151;DHT22;25866;52.420;10.640;2023-01-29T07:14:33;0.20;99.90
40151;DHT22;25866;52.420;10.640;2023-01-29T07:16:58;0.20;99.90
40151;DHT22;25866;52.420;10.640;2023-01-29T07:19:24;0.20;99.90
40151;DHT22;25866;52.420;10.640;2023-01-29T07:21:51;0.20;99.90
40151;DHT22;25866;52.420;10.640;2023-01-29T07:24:17;0.20;99.90
40151;DHT22;25866;52.420;10.640;2023-01-29T07:26:43;0.20;99.90
40151;DHT22;25866;52.420;10.640;2023-01-29T07:29:09;0.20;99.90
40151;DHT22;25866;52.420;10.640;2023-01-29T07:31:35;0.20;99.90
40151;DHT22;25866;52.420;10.640;2023-01-29T07:34:00;0.20;99.90
40151;DHT22;25866;52.420;10.640;2023-01-29T07:36:26;0.20;99.90
40151;DHT22;25866;52.420;10.640;2023-01-29T07:38:52;0.30;99.90
40151;DHT22;25866;52.420;10.640;2023-01-29T07:41:18;0.30;99.90
40151;DHT22;25866;52.420;10.640;2023-01-29T07:43:44;0.30;99.90
40151;DHT22;25866;52.420;10.640;2023-01-29T07:46:10;0.40;99.90
40151;DHT22;25866;52.420;10.640;2023-01-29T07:48:36;0.30;99.90
40151;DHT22;25866;52.420;10.640;2023-01-29T07:51:02;0.40;99.90
40151;DHT22;25866;52.420;10.640;2023-01-29T07:53:27;0.30;99.90
40151;DHT22;25866;52.420;10.640;2023-01-29T07:55:54;0.30;99.90
40151;DHT22;25866;52.420;10.640;2023-01-29T07:58:19;0.30;99.90
40151;DHT22;25866;52.420;10.640;2023-01-29T08:00:45;0.30;99.90
40151;DHT22;25866;52.420;10.640;2023-01-29T08:03:14;0.30;99.90
40151;DHT22;25866;52.420;10.640;2023-01-29T08:05:41;0.40;99.90
40151;DHT22;25866;52.420;10.640;2023-01-29T08:08:07;0.40;99.90
40151;DHT22;25866;52.420;10.640;2023-01-29T08:10:37;0.40;99.90
40151;DHT22;25866;52.420;10.640;2023-01-29T08:13:04;0.30;99.90
40151;DHT22;25866;52.420;10.640;2023-01-29T08:15:31;0.40;99.90
40151;DHT22;25866;52.420;10.640;2023-01-29T08:17:57;0.40;99.90
40151;DHT22;25866;52.420;10.640;2023-01-29T08:20:22;0.40;99.90
40151;DHT22;25866;52.420;10.640;2023-01-29T08:22:48;0.40;99.90
40151;DHT22;25866;52.420;10.640;2023-01-29T08:25:15;0.40;99.90
40151;DHT22;25866;52.420;10.640;2023-01-29T08:27:41;0.40;99.90
40151;DHT22;25866;52.420;10.640;2023-01-29T08:30:08;0.40;99.90
40151;DHT22;25866;52.420;10.640;2023-01-29T08:32:34;0.40;99.90
40151;DHT22;25866;52.420;10.640;2023-01-29T08:35:01;0.40;99.90
40151;DHT22;25866;52.420;10.640;2023-01-29T08:37:29;0.40;99.90
40151;DHT22;25866;52.420;10.640;2023-01-29T08:39:55;0.40;99.90
40151;DHT22;25866;52.420;10.640;2023-01-29T08:42:22;0.40;99.90
40151;DHT22;25866;52.420;10.640;2023-01-29T08:44:48;0.50;99.90
40151;DHT22;25866;52.420;10.640;2023-01-29T08:47:13;0.50;99.90
40151;DHT22;25866;52.420;10.640;2023-01-29T08:49:39;0.50;99.90
40151;DHT22;25866;52.420;10.640;2023-01-29T08:52:04;0.50;99.90
40151;DHT22;25866;52.420;10.640;2023-01-29T08:54:30;0.50;99.90
40151;DHT22;25866;52.420;10.640;2023-01-29T08:56:56;0.50;99.90
40151;DHT22;25866;52.420;10.640;2023-01-29T08:59:21;0.60;99.90
40151;DHT22;25866;52.420;10.640;2023-01-29T09:01:47;0.60;99.90
40151;DHT22;25866;52.420;10.640;2023-01-29T09:04:14;0.60;99.90
40151;DHT22;25866;52.420;10.640;2023-01-29T09:06:40;0.70;99.90
40151;DHT22;25866;52.420;10.640;2023-01-29T09:09:05;0.70;99.90
40151;DHT22;25866;52.420;10.640;2023-01-29T09:11:31;0.60;99.90
40151;DHT22;25866;52.420;10.640;2023-01-29T09:13:56;0.70;99.90
40151;DHT22;25866;52.420;10.640;2023-01-29T09:16:22;0.70;99.90
40151;DHT22;25866;52.420;10.640;2023-01-29T09:18:48;0.70;99.90
40151;DHT22;25866;52.420;10.640;2023-01-29T09:21:13;0.70;99.90
40151;DHT22;25866;52.420;10.640;2023-01-29T09:23:39;0.70;99.90
40151;DHT22;25866;52.420;10.640;2023-01-29T09:26:06;0.70;99.90
40151;DHT22;25866;52.420;10.640;2023-01-29T09:28:32;0.70;99.90
40151;DHT22;25866;52.420;10.640;2023-01-29T09:31:01;0.70;99.90
40151;DHT22;25866;52.420;10.640;2023-01-29T09:33:27;0.70;99.90
40151;DHT22;25866;52.420;10.640;2023-01-29T09:35:53;0.70;99.90
40151;DHT22;25866;52.420;10.640;2023-01-29T09:38:19;0.70;99.90
40151;DHT22;25866;52.420;10.640;2023-01-29T09:43:46;0.70;99.90
40151;DHT22;25866;52.420;10.640;2023-01-29T09:46:20;0.70;99.90
40151;DHT22;25866;52.420;10.640;2023-01-29T09:48:50;0.70;99.90
40151;DHT22;25866;52.420;10.640;2023-01-29T09:51:28;0.70;99.90
40151;DHT22;25866;52.420;10.640;2023-01-29T09:54:12;0.70;99.90
40151;DHT22;25866;52.420;10.640;2023-01-29T09:56:41;0.70;99.90
40151;DHT22;25866;52.420;10.640;2023-01-29T09:59:10;0.80;99.90
40151;DHT22;25866;52.420;10.640;2023-01-29T10:10:05;0.90;99.90
40151;DHT22;25866;52.420;10.640;2023-01-29T10:12:50;1.00;99.90
40151;DHT22;25866;52.420;10.640;2023-01-29T10:23:41;1.10;99.90
40151;DHT22;25866;52.420;10.640;2023-01-29T10:26:11;1.10;99.90
40151;DHT22;25866;52.420;10.640;2023-01-29T10:28:44;1.10;99.90
40151;DHT22;25866;52.420;10.640;2023-01-29T10:31:28;1.10;99.90
40151;DHT22;25866;52.420;10.640;2023-01-29T10:34:05;1.20;99.90
40151;DHT22;25866;52.420;10.640;2023-01-29T10:36:44;1.10;99.90
40151;DHT22;25866;52.420;10.640;2023-01-29T10:39:18;1.10;99.90
40151;DHT22;25866;52.420;10.640;2023-01-29T10:45:02;1.10;99.90
40151;DHT22;25866;52.420;10.640;2023-01-29T10:50:36;1.20;99.90
40151;DHT22;25866;52.420;10.640;2023-01-29T10:53:28;1.20;99.90
40151;DHT22;25866;52.420;10.640;2023-01-29T11:00:52;1.20;99.90
40151;DHT22;25866;52.420;10.640;2023-01-29T11:03:28;1.20;99.90
40151;DHT22;25866;52.420;10.640;2023-01-29T11:05:56;1.30;99.90
40151;DHT22;25866;52.420;10.640;2023-01-29T11:08:27;1.30;99.90
40151;DHT22;25866;52.420;10.640;2023-01-29T11:11:13;1.30;99.90
40151;DHT22;25866;52.420;10.640;2023-01-29T11:13:59;1.30;99.90
40151;DHT22;25866;52.420;10.640;2023-01-29T11:16:29;1.30;99.90
40151;DHT22;25866;52.420;10.640;2023-01-29T11:19:00;1.30;99.90
40151;DHT22;25866;52.420;10.640;2023-01-29T11:21:28;1.40;99.90
40151;DHT22;25866;52.420;10.640;2023-01-29T11:24:13;1.40;99.90
40151;DHT22;25866;52.420;10.640;2023-01-29T11:26:45;1.40;99.90
40151;DHT22;25866;52.420;10.640;2023-01-29T11:29:36;1.50;99.90
40151;DHT22;25866;52.420;10.640;2023-01-29T11:32:23;1.50;99.90
40151;DHT22;25866;52.420;10.640;2023-01-29T11:35:02;1.50;99.90
40151;DHT22;25866;52.420;10.640;2023-01-29T11:37:46;1.50;99.90
40151;DHT22;25866;52.420;10.640;2023-01-29T11:42:44;1.60;99.90
40151;DHT22;25866;52.420;10.640;2023-01-29T11:45:29;1.70;99.90
40151;DHT22;25866;52.420;10.640;2023-01-29T11:47:57;1.70;99.90
40151;DHT22;25866;52.420;10.640;2023-01-29T11:50:29;1.70;99.90
40151;DHT22;25866;52.420;10.640;2023-01-29T11:52:58;1.70;99.90
40151;DHT22;25866;52.420;10.640;2023-01-29T11:55:25;1.60;99.90
40151;DHT22;25866;52.420;10.640;2023-01-29T11:58:00;1.60;99.90
40151;DHT22;25866;52.420;10.640;2023-01-29T12:00:32;1.60;99.90
40151;DHT22;25866;52.420;10.640;2023-01-29T12:03:28;1.70;99.90
40151;DHT22;25866;52.420;10.640;2023-01-29T12:06:22;1.70;99.90
40151;DHT22;25866;52.420;10.640;2023-01-29T12:08:56;1.70;99.90
40151;DHT22;25866;52.420;10.640;2023-01-29T12:11:31;1.80;99.90
40151;DHT22;25866;52.420;10.640;2023-01-29T12:13:59;1.70;99.90
40151;DHT22;25866;52.420;10.640;2023-01-29T12:16:37;1.70;99.90
40151;DHT22;25866;52.420;10.640;2023-01-29T12:21:57;1.70;99.90
40151;DHT22;25866;52.420;10.640;2023-01-29T12:24:34;1.70;99.90
40151;DHT22;25866;52.420;10.640;2023-01-29T12:29:41;1.80;99.90
40151;DHT22;25866;52.420;10.640;2023-01-29T12:37:45;1.80;99.90
40151;DHT22;25866;52.420;10.640;2023-01-29T12:40:16;1.80;99.90
40151;DHT22;25866;52.420;10.640;2023-01-29T12:42:46;1.70;99.90
40151;DHT22;25866;52.420;10.640;2023-01-29T12:45:18;1.70;99.90
40151;DHT22;25866;52.420;10.640;2023-01-29T12:47:52;1.70;99.90
40151;DHT22;25866;52.420;10.640;2023-01-29T12:50:31;1.70;99.90
40151;DHT22;25866;52.420;10.640;2023-01-29T12:53:09;1.70;99.90
40151;DHT22;25866;52.420;10.640;2023-01-29T12:55:45;1.80;99.90
40151;DHT22;25866;52.420;10.640;2023-01-29T13:06:14;1.70;99.90
40151;DHT22;25866;52.420;10.640;2023-01-29T13:08:45;1.70;99.90
40151;DHT22;25866;52.420;10.640;2023-01-29T13:11:23;1.70;99.90
40151;DHT22;25866;52.420;10.640;2023-01-29T13:13:58;1.70;99.90
40151;DHT22;25866;52.420;10.640;2023-01-29T13:16:28;1.70;99.90
40151;DHT22;25866;52.420;10.640;2023-01-29T13:18:55;1.70;99.90
40151;DHT22;25866;52.420;10.640;2023-01-29T13:21:29;1.80;99.90
40151;DHT22;25866;52.420;10.640;2023-01-29T13:24:02;1.80;99.90
40151;DHT22;25866;52.420;10.640;2023-01-29T13:26:29;1.80;99.90
40151;DHT22;25866;52.420;10.640;2023-01-29T13:28:56;1.80;99.90
40151;DHT22;25866;52.420;10.640;2023-01-29T13:31:35;1.90;99.90
40151;DHT22;25866;52.420;10.640;2023-01-29T13:34:14;1.90;99.90
40151;DHT22;25866;52.420;10.640;2023-01-29T13:36:43;1.80;99.90
40151;DHT22;25866;52.420;10.640;2023-01-29T13:41:51;1.80;99.90
40151;DHT22;25866;52.420;10.640;2023-01-29T13:47:00;1.80;99.90
40151;DHT22;25866;52.420;10.640;2023-01-29T13:49:39;1.80;99.90
40151;DHT22;25866;52.420;10.640;2023-01-29T13:55:08;1.80;99.90
40151;DHT22;25866;52.420;10.640;2023-01-29T14:05:40;1.90;99.90
40151;DHT22;25866;52.420;10.640;2023-01-29T14:08:42;1.90;99.90
40151;DHT22;25866;52.420;10.640;2023-01-29T14:13:48;2.00;99.90
40151;DHT22;25866;52.420;10.640;2023-01-29T14:18:57;2.00;99.90
40151;DHT22;25866;52.420;10.640;2023-01-29T14:21:27;2.00;99.90
40151;DHT22;25866;52.420;10.640;2023-01-29T14:24:17;1.90;99.90
40151;DHT22;25866;52.420;10.640;2023-01-29T14:26:47;1.90;99.90
40151;DHT22;25866;52.420;10.640;2023-01-29T14:31:43;2.00;99.90
40151;DHT22;25866;52.420;10.640;2023-01-29T14:34:16;2.00;99.90
40151;DHT22;25866;52.420;10.640;2023-01-29T14:36:45;2.00;99.90
40151;DHT22;25866;52.420;10.640;2023-01-29T14:39:21;1.90;99.90
40151;DHT22;25866;52.420;10.640;2023-01-29T14:41:49;1.90;99.90
40151;DHT22;25866;52.420;10.640;2023-01-29T14:50:00;1.90;99.90
40151;DHT22;25866;52.420;10.640;2023-01-29T14:52:32;1.90;99.90
40151;DHT22;25866;52.420;10.640;2023-01-29T14:55:04;1.90;99.90
40151;DHT22;25866;52.420;10.640;2023-01-29T14:57:33;1.90;99.90
40151;DHT22;25866;52.420;10.640;2023-01-29T15:00:05;1.90;99.90
40151;DHT22;25866;52.420;10.640;2023-01-29T15:02:37;1.90;99.90
40151;DHT22;25866;52.420;10.640;2023-01-29T15:05:11;1.90;99.90
40151;DHT22;25866;52.420;10.640;2023-01-29T15:07:43;1.90;99.90
40151;DHT22;25866;52.420;10.640;2023-01-29T15:10:26;1.90;99.90
40151;DHT22;25866;52.420;10.640;2023-01-29T15:13:14;1.90;99.90
40151;DHT22;25866;52.420;10.640;2023-01-29T15:15:51;1.80;99.90
40151;DHT22;25866;52.420;10.640;2023-01-29T15:21:11;1.80;99.90
40151;DHT22;25866;52.420;10.640;2023-01-29T15:23:38;1.90;99.90
40151;DHT22;25866;52.420;10.640;2023-01-29T15:26:10;1.90;99.90
40151;DHT22;25866;52.420;10.640;2023-01-29T15:28:37;1.80;99.90
40151;DHT22;25866;52.420;10.640;2023-01-29T15:31:06;1.80;99.90
40151;DHT22;25866;52.420;10.640;2023-01-29T15:33:36;1.80;99.90
40151;DHT22;25866;52.420;10.640;2023-01-29T15:36:04;1.80;99.90
40151;DHT22;25866;52.420;10.640;2023-01-29T15:38:31;1.70;99.90
40151;DHT22;25866;52.420;10.640;2023-01-29T15:41:20;1.70;99.90
40151;DHT22;25866;52.420;10.640;2023-01-29T15:43:50;1.70;99.90
40151;DHT22;25866;52.420;10.640;2023-01-29T15:46:30;1.70;99.90
40151;DHT22;25866;52.420;10.640;2023-01-29T15:49:00;1.70;99.90
40151;DHT22;25866;52.420;10.640;2023-01-29T15:51:27;1.70;99.90
40151;DHT22;25866;52.420;10.640;2023-01-29T15:53:57;1.60;99.90
40151;DHT22;25866;52.420;10.640;2023-01-29T15:56:45;1.70;99.90
40151;DHT22;25866;52.420;10.640;2023-01-29T15:59:22;1.60;99.90
40151;DHT22;25866;52.420;10.640;2023-01-29T16:01:49;1.60;99.90
40151;DHT22;25866;52.420;10.640;2023-01-29T16:04:29;1.60;99.90
40151;DHT22;25866;52.420;10.640;2023-01-29T16:06:57;1.60;99.90
40151;DHT22;25866;52.420;10.640;2023-01-29T16:09:25;1.60;99.90
40151;DHT22;25866;52.420;10.640;2023-01-29T16:11:53;1.50;99.90
40151;DHT22;25866;52.420;10.640;2023-01-29T16:14:21;1.50;99.90
40151;DHT22;25866;52.420;10.640;2023-01-29T16:16:47;1.60;99.90
40151;DHT22;25866;52.420;10.640;2023-01-29T16:19:28;1.60;99.90
40151;DHT22;25866;52.420;10.640;2023-01-29T16:21:59;1.60;99.90
40151;DHT22;25866;52.420;10.640;2023-01-29T16:24:25;1.50;99.90
40151;DHT22;25866;52.420;10.640;2023-01-29T16:26:56;1.50;99.90
40151;DHT22;25866;52.420;10.640;2023-01-29T16:29:28;1.50;99.90
40151;DHT22;25866;52.420;10.640;2023-01-29T16:31:54;1.50;99.90
40151;DHT22;25866;52.420;10.640;2023-01-29T16:34:31;1.40;99.90
40151;DHT22;25866;52.420;10.640;2023-01-29T16:36:58;1.40;99.90
40151;DHT22;25866;52.420;10.640;2023-01-29T16:39:46;1.30;99.90
40151;DHT22;25866;52.420;10.640;2023-01-29T16:47:12;1.20;99.90
40151;DHT22;25866;52.420;10.640;2023-01-29T16:54:48;1.30;99.90
40151;DHT22;25866;52.420;10.640;2023-01-29T16:57:26;1.20;99.90
40151;DHT22;25866;52.420;10.640;2023-01-29T16:59:55;1.20;99.90
40151;DHT22;25866;52.420;10.640;2023-01-29T17:02:25;1.20;99.90
40151;DHT22;25866;52.420;10.640;2023-01-29T17:04:54;1.20;99.90
40151;DHT22;25866;52.420;10.640;2023-01-29T17:07:21;1.20;99.90
40151;DHT22;25866;52.420;10.640;2023-01-29T17:10:00;1.20;99.90
40151;DHT22;25866;52.420;10.640;2023-01-29T17:12:29;1.20;99.90
40151;DHT22;25866;52.420;10.640;2023-01-29T17:15:01;1.20;99.90
40151;DHT22;25866;52.420;10.640;2023-01-29T17:17:29;1.20;99.90
40151;DHT22;25866;52.420;10.640;2023-01-29T17:19:56;1.20;99.90
40151;DHT22;25866;52.420;10.640;2023-01-29T17:22:22;1.20;99.90
40151;DHT22;25866;52.420;10.640;2023-01-29T17:24:48;1.20;99.90
40151;DHT22;25866;52.420;10.640;2023-01-29T17:27:20;1.20;99.90
40151;DHT22;25866;52.420;10.640;2023-01-29T17:29:48;1.20;99.90
40151;DHT22;25866;52.420;10.640;2023-01-29T17:32:15;1.30;99.90
40151;DHT22;25866;52.420;10.640;2023-01-29T17:34:44;1.30;99.90
40151;DHT22;25866;52.420;10.640;2023-01-29T17:37:14;1.30;99.90
40151;DHT22;25866;52.420;10.640;2023-01-29T17:39:41;1.30;99.90
40151;DHT22;25866;52.420;10.640;2023-01-29T17:42:12;1.30;99.90
40151;DHT22;25866;52.420;10.640;2023-01-29T17:44:39;1.40;99.90
40151;DHT22;25866;52.420;10.640;2023-01-29T17:47:04;1.40;99.90
40151;DHT22;25866;52.420;10.640;2023-01-29T17:49:32;1.40;99.90
40151;DHT22;25866;52.420;10.640;2023-01-29T17:51:58;1.40;99.90
40151;DHT22;25866;52.420;10.640;2023-01-29T17:54:24;1.40;99.90
40151;DHT22;25866;52.420;10.640;2023-01-29T17:56:51;1.50;99.90
40151;DHT22;25866;52.420;10.640;2023-01-29T17:59:23;1.50;99.90